Time;durP1;ratioP1;P1;durP2;ratioP2;P2;SDS_P1;SDS_P2;PMS_P1;PMS_P2;Temp;Humidity;BMP_temperature;BMP_pressure;BME280_temperature;BME280_humidity;BME280_pressure;Samples;Min_cycle;Max_cycle;Signal;HPM_P1;HPM_P2
2022/06/10 00:01:06;;;;;;;8.90;3.75;;;9.80;99.90;;;;;;5018630;28;20048;-84
2022/06/10 00:03:37;;;;;;;12.07;3.70;;;9.90;99.90;;;;;;5054322;28;20076;-85
2022/06/10 00:06:06;;;;;;;9.65;3.80;;;9.90;99.90;;;;;;5036826;28;20106;-84
2022/06/10 00:08:37;;;;;;;14.65;3.88;;;9.80;99.90;;;;;;5041690;28;20040;-84
2022/06/10 00:11:10;;;;;;;19.27;4.85;;;9.80;99.90;;;;;;5026863;28;20203;-84
2022/06/10 00:13:46;;;;;;;10.65;4.20;;;9.80;99.90;;;;;;5031641;28;20052;-84
2022/06/10 00:16:19;;;;;;;17.65;4.60;;;9.80;99.90;;;;;;5045652;28;20090;-84
2022/06/10 00:18:48;;;;;;;8.13;3.88;;;9.80;99.90;;;;;;5023340;28;20426;-84
2022/06/10 00:21:19;;;;;;;15.93;5.03;;;9.80;99.90;;;;;;5037509;28;20565;-84
2022/06/10 00:23:47;;;;;;;11.05;4.00;;;9.70;99.90;;;;;;5049786;28;20123;-84
2022/06/10 00:26:19;;;;;;;13.63;4.60;;;9.70;99.90;;;;;;5012247;28;20509;-84
2022/06/10 00:28:46;;;;;;;9.13;4.20;;;9.70;99.90;;;;;;5023931;28;20059;-85
2022/06/10 00:31:16;;;;;;;11.30;4.07;;;9.70;99.90;;;;;;5043593;28;20041;-84
2022/06/10 00:33:47;;;;;;;20.17;5.53;;;9.70;99.90;;;;;;5039656;28;20127;-85
2022/06/10 00:36:21;;;;;;;16.85;4.13;;;9.60;99.90;;;;;;5035435;28;20132;-84
2022/06/10 00:38:50;;;;;;;12.02;4.53;;;9.50;99.90;;;;;;5050347;28;20546;-83
2022/06/10 00:41:19;;;;;;;12.18;4.38;;;9.60;99.90;;;;;;5037923;28;20048;-85
2022/06/10 00:43:58;;;;;;;13.55;4.68;;;9.60;99.90;;;;;;5047639;28;20127;-84
2022/06/10 00:46:29;;;;;;;12.40;4.95;;;9.60;99.90;;;;;;5027486;28;20387;-84
2022/06/10 00:49:07;;;;;;;16.23;5.18;;;9.60;99.90;;;;;;5039933;28;20087;-84
2022/06/10 00:51:41;;;;;;;14.63;4.03;;;9.60;99.90;;;;;;5043499;28;20127;-83
2022/06/10 00:54:21;;;;;;;13.75;4.82;;;9.60;99.90;;;;;;5026378;28;20048;-84
2022/06/10 00:57:03;;;;;;;11.15;4.50;;;9.60;99.90;;;;;;5026047;28;20044;-87
2022/06/10 00:59:34;;;;;;;11.50;4.90;;;9.60;99.90;;;;;;5023942;28;20048;-84
2022/06/10 01:02:04;;;;;;;10.82;4.50;;;9.60;99.90;;;;;;5022827;28;20049;-84
2022/06/10 01:04:30;;;;;;;14.27;4.40;;;9.60;99.90;;;;;;5028069;28;20041;-84
2022/06/10 01:06:57;;;;;;;13.82;4.53;;;9.60;99.90;;;;;;5027757;28;20045;-84
2022/06/10 01:09:24;;;;;;;9.18;4.13;;;9.60;99.90;;;;;;5030806;28;20482;-84
2022/06/10 01:12:09;;;;;;;14.73;5.07;;;9.70;99.90;;;;;;5023571;28;20379;-85
2022/06/10 01:15:04;;;;;;;15.48;5.28;;;9.60;99.90;;;;;;5033257;28;20049;-84
2022/06/10 01:17:55;;;;;;;10.25;5.05;;;9.60;99.90;;;;;;5032611;28;20044;-85
2022/06/10 01:20:20;;;;;;;12.88;4.45;;;9.60;99.90;;;;;;5042614;28;20036;-83
2022/06/10 01:23:01;;;;;;;13.75;4.43;;;9.60;99.90;;;;;;5021618;28;20048;-84
2022/06/10 01:25:36;;;;;;;14.57;5.28;;;9.60;99.90;;;;;;5029226;28;20044;-84
2022/06/10 01:28:19;;;;;;;8.82;4.85;;;9.50;99.90;;;;;;5028301;28;20048;-85
2022/06/10 01:31:07;;;;;;;9.70;4.85;;;9.60;99.90;;;;;;5034568;28;20127;-84
2022/06/10 01:33:44;;;;;;;13.68;6.90;;;9.60;99.90;;;;;;5030076;28;20036;-84
2022/06/10 01:36:37;;;;;;;15.85;5.93;;;9.60;99.90;;;;;;5041495;28;20056;-84
2022/06/10 01:39:20;;;;;;;10.60;4.65;;;9.60;99.90;;;;;;5039894;28;20079;-84
2022/06/10 01:41:52;;;;;;;12.60;5.38;;;9.60;99.90;;;;;;5045927;28;20044;-85
2022/06/10 01:44:45;;;;;;;16.08;6.15;;;9.70;99.90;;;;;;5037654;28;20037;-83
2022/06/10 01:47:21;;;;;;;13.77;5.18;;;9.70;99.90;;;;;;5050949;28;20049;-85
2022/06/10 01:49:51;;;;;;;;;;;9.70;99.90;;;;;;5056854;28;20049;-84
2022/06/10 01:52:32;;;;;;;13.25;5.22;;;9.70;99.90;;;;;;5025233;28;20022;-85
2022/06/10 01:55:15;;;;;;;12.55;5.95;;;9.70;99.90;;;;;;5027394;28;20083;-84
2022/06/10 01:58:26;;;;;;;11.77;5.53;;;9.70;99.90;;;;;;5026386;28;20123;-84
2022/06/10 02:01:01;;;;;;;15.13;6.05;;;9.70;99.90;;;;;;4966336;28;20043;-84
2022/06/10 02:03:48;;;;;;;19.40;7.30;;;9.60;99.90;;;;;;4945821;29;20062;-83
2022/06/10 02:06:30;;;;;;;12.05;6.10;;;9.60;99.90;;;;;;4994606;28;20064;-84
2022/06/10 02:09:06;;;;;;;14.43;6.53;;;9.60;99.90;;;;;;5039463;28;20075;-84
2022/06/10 02:11:34;;;;;;;10.05;5.57;;;9.60;99.90;;;;;;5052418;28;20045;-84
2022/06/10 02:14:10;;;;;;;13.10;5.90;;;9.60;99.90;;;;;;5048816;28;20049;-84
2022/06/10 02:16:41;;;;;;;9.77;5.20;;;9.60;99.90;;;;;;5050595;28;20045;-85
2022/06/10 02:19:28;;;;;;;12.00;5.53;;;9.50;99.90;;;;;;5033208;28;20500;-84
2022/06/10 02:22:01;;;;;;;12.00;5.53;;;9.60;99.90;;;;;;5033864;28;20056;-84
2022/06/10 02:24:38;;;;;;;15.77;5.70;;;9.50;99.90;;;;;;5025787;28;20052;-84
2022/06/10 02:27:35;;;;;;;11.68;5.68;;;9.50;99.90;;;;;;5044233;28;20379;-84
2022/06/10 02:30:05;;;;;;;18.50;5.82;;;9.50;99.90;;;;;;5050172;28;20113;-84
2022/06/10 02:32:33;;;;;;;13.77;5.82;;;9.50;99.90;;;;;;5037635;28;20484;-84
2022/06/10 02:34:59;;;;;;;15.80;5.40;;;9.50;99.90;;;;;;5028627;28;20079;-86
2022/06/10 02:37:46;;;;;;;13.13;5.07;;;9.50;99.90;;;;;;5039531;28;20375;-83
2022/06/10 02:40:19;;;;;;;10.32;5.88;;;9.50;99.90;;;;;;5039093;28;20405;-85
2022/06/10 02:43:06;;;;;;;12.55;6.25;;;9.40;99.90;;;;;;5039675;28;20394;-83
2022/06/10 02:45:32;;;;;;;;;;;9.40;99.90;;;;;;5032925;28;20048;-84
2022/06/10 02:48:04;;;;;;;13.82;6.00;;;9.40;99.90;;;;;;5019819;28;19928;-84
2022/06/10 02:50:30;;;;;;;13.80;6.25;;;9.30;99.90;;;;;;5025514;28;20044;-83
2022/06/10 02:52:57;;;;;;;12.85;6.10;;;9.30;99.90;;;;;;5045181;28;20118;-84
2022/06/10 02:55:26;;;;;;;12.98;5.93;;;9.20;99.90;;;;;;5019483;28;20064;-84
2022/06/10 03:01:30;;;;;;;15.13;6.22;;;9.30;99.90;;;;;;5037292;28;20059;-84
2022/06/10 03:04:01;;;;;;;;;;;9.20;99.90;;;;;;5038632;28;20048;-84
2022/06/10 03:06:48;;;;;;;10.80;6.35;;;9.20;99.90;;;;;;5029032;28;19933;-83
2022/06/10 03:09:38;;;;;;;13.13;5.88;;;9.10;99.90;;;;;;5017730;28;20387;-84
2022/06/10 03:12:22;;;;;;;10.48;6.00;;;9.10;99.90;;;;;;5044962;28;20049;-88
2022/06/10 03:15:05;;;;;;;13.27;6.43;;;9.10;99.90;;;;;;5045727;28;20126;-83
2022/06/10 03:18:24;;;;;;;13.85;5.95;;;9.10;99.90;;;;;;5026658;28;20037;-84
2022/06/10 03:21:16;;;;;;;13.20;5.82;;;9.10;99.90;;;;;;4936792;29;20425;-84
2022/06/10 03:23:44;;;;;;;16.33;6.53;;;9.10;99.90;;;;;;4968424;28;20416;-83
2022/06/10 03:26:23;;;;;;;14.35;6.00;;;9.10;99.90;;;;;;5024835;28;20058;-84
2022/06/10 03:29:05;;;;;;;16.08;6.15;;;9.10;99.90;;;;;;5022373;28;20495;-83
2022/06/10 03:31:50;;;;;;;13.15;6.13;;;9.10;99.90;;;;;;5034990;28;20083;-84
2022/06/10 03:34:36;;;;;;;8.82;5.10;;;9.10;99.90;;;;;;5030033;28;20497;-84
2022/06/10 03:37:05;;;;;;;13.13;5.78;;;9.10;99.90;;;;;;5024844;28;20410;-87
2022/06/10 03:39:31;;;;;;;18.60;7.80;;;9.10;99.90;;;;;;5021765;28;20045;-84
2022/06/10 03:41:59;;;;;;;14.77;5.80;;;9.10;99.90;;;;;;5014054;28;20048;-85
2022/06/10 03:44:27;;;;;;;11.15;5.90;;;9.10;99.90;;;;;;5049388;28;20044;-84
2022/06/10 03:46:55;;;;;;;19.08;6.55;;;9.10;99.90;;;;;;5046540;28;20051;-83
2022/06/10 03:49:27;;;;;;;12.43;6.35;;;9.10;99.90;;;;;;5005412;28;20785;-84
2022/06/10 03:51:53;;;;;;;12.57;6.20;;;9.10;99.90;;;;;;5044901;28;20128;-83
2022/06/10 03:54:19;;;;;;;18.73;6.68;;;9.20;99.90;;;;;;5031826;28;20554;-84
2022/06/10 03:56:46;;;;;;;10.45;5.63;;;9.20;99.90;;;;;;5039353;28;20428;-83
2022/06/10 03:59:12;;;;;;;12.93;5.90;;;9.20;99.90;;;;;;5028927;28;20402;-84
2022/06/10 04:01:38;;;;;;;10.38;5.40;;;9.20;99.90;;;;;;5055257;28;20037;-83
2022/06/10 04:04:04;;;;;;;13.93;6.10;;;9.30;99.90;;;;;;5018130;28;20037;-84
2022/06/10 04:06:31;;;;;;;11.35;5.55;;;9.40;99.90;;;;;;5035914;28;20076;-84
2022/06/10 04:08:57;;;;;;;17.27;6.28;;;9.30;99.90;;;;;;5027577;28;20044;-84
2022/06/10 04:11:22;;;;;;;12.68;6.13;;;9.40;99.90;;;;;;5049619;28;20124;-84
2022/06/10 04:13:48;;;;;;;14.50;5.80;;;9.50;99.90;;;;;;5037098;28;20080;-84
2022/06/10 04:16:14;;;;;;;15.73;5.78;;;9.70;99.90;;;;;;5037812;28;20057;-86
2022/06/10 04:18:40;;;;;;;17.48;5.95;;;9.70;99.90;;;;;;5011353;28;20052;-84
2022/06/10 04:21:06;;;;;;;11.18;5.32;;;9.80;99.90;;;;;;5050796;28;20057;-84
2022/06/10 04:23:32;;;;;;;12.68;5.20;;;9.90;99.90;;;;;;5022895;28;20049;-84
2022/06/10 04:25:58;;;;;;;13.63;5.55;;;9.90;99.90;;;;;;5030357;28;20127;-84
2022/06/10 04:28:24;;;;;;;13.10;5.57;;;10.10;99.90;;;;;;5033930;28;20048;-83
2022/06/10 04:30:51;;;;;;;10.85;5.05;;;10.10;99.90;;;;;;5019986;28;20386;-84
2022/06/10 04:33:19;;;;;;;15.02;6.22;;;10.10;99.90;;;;;;5027389;28;20041;-84
2022/06/10 04:35:47;;;;;;;13.23;5.80;;;10.20;99.90;;;;;;5041192;28;20052;-83
2022/06/10 04:38:21;;;;;;;12.20;5.35;;;10.30;99.90;;;;;;5053668;28;20870;-84
2022/06/10 04:40:48;;;;;;;15.90;5.78;;;10.40;99.90;;;;;;5046221;28;20059;-84
2022/06/10 04:43:14;;;;;;;17.02;6.32;;;10.50;99.90;;;;;;5023362;28;20053;-83
2022/06/10 04:45:50;;;;;;;19.02;5.72;;;10.50;99.90;;;;;;5033295;28;20041;-83
2022/06/10 04:48:16;;;;;;;15.63;5.25;;;10.70;99.90;;;;;;5043595;28;20503;-87
2022/06/10 04:50:45;;;;;;;15.15;5.43;;;10.80;99.90;;;;;;5037024;28;20044;-84
2022/06/10 04:53:11;;;;;;;16.80;5.65;;;10.80;99.90;;;;;;5031116;28;20489;-84
2022/06/10 04:55:36;;;;;;;15.45;6.03;;;10.90;99.90;;;;;;5047550;28;20190;-83
2022/06/10 04:58:05;;;;;;;15.82;5.22;;;11.00;99.90;;;;;;5025953;28;20486;-84
2022/06/10 05:00:38;;;;;;;14.48;5.88;;;11.00;99.90;;;;;;5036217;28;20059;-85
2022/06/10 05:03:04;;;;;;;15.18;5.47;;;11.20;99.90;;;;;;5047564;28;20044;-84
2022/06/10 05:05:30;;;;;;;14.23;5.22;;;11.20;99.90;;;;;;5034011;28;20045;-84
2022/06/10 05:07:57;;;;;;;19.88;5.63;;;11.40;99.90;;;;;;5038526;28;20123;-84
2022/06/10 05:10:24;;;;;;;14.05;5.60;;;11.40;99.90;;;;;;5028731;28;20038;-84
2022/06/10 05:12:50;;;;;;;13.85;5.25;;;11.60;99.90;;;;;;5018353;28;20471;-86
2022/06/10 05:15:20;;;;;;;15.05;5.65;;;11.70;99.90;;;;;;5031810;28;20053;-84
2022/06/10 05:17:47;;;;;;;21.05;6.03;;;11.80;99.90;;;;;;5028034;28;20047;-84
2022/06/10 05:20:23;;;;;;;13.52;5.10;;;12.00;99.90;;;;;;5047882;28;20534;-85
2022/06/10 05:22:49;;;;;;;15.63;5.43;;;12.30;99.90;;;;;;5031515;28;20127;-84
2022/06/10 05:25:15;;;;;;;10.35;5.32;;;12.50;99.90;;;;;;5053121;28;20040;-84
2022/06/10 05:27:41;;;;;;;20.90;6.25;;;12.80;99.90;;;;;;5049553;28;20045;-84
2022/06/10 05:30:09;;;;;;;11.35;5.25;;;13.20;99.90;;;;;;5025448;28;20397;-84
2022/06/10 05:32:36;;;;;;;14.95;5.18;;;13.50;99.90;;;;;;5016052;28;20053;-84
2022/06/10 05:35:01;;;;;;;12.73;4.70;;;13.70;99.90;;;;;;5022303;28;20049;-83
2022/06/10 05:37:27;;;;;;;15.18;4.95;;;14.00;99.90;;;;;;5052750;28;20051;-83
2022/06/10 05:39:53;;;;;;;11.40;4.28;;;14.30;99.90;;;;;;5034152;28;20075;-84
2022/06/10 05:42:19;;;;;;;16.52;4.28;;;14.60;99.90;;;;;;5018562;28;20045;-83
2022/06/10 05:44:48;;;;;;;16.25;4.47;;;14.70;99.90;;;;;;5027392;28;20052;-84
2022/06/10 05:47:17;;;;;;;15.05;4.40;;;14.90;99.90;;;;;;5049297;28;20403;-84
2022/06/10 05:49:46;;;;;;;11.50;4.20;;;15.10;99.90;;;;;;5036051;28;20395;-84
2022/06/10 05:52:14;;;;;;;10.75;4.70;;;15.30;99.90;;;;;;5019400;28;20043;-85
2022/06/10 05:54:44;;;;;;;11.07;4.28;;;15.40;99.90;;;;;;5044737;28;20044;-84
2022/06/10 05:57:10;;;;;;;13.60;3.92;;;15.50;99.90;;;;;;5023978;28;20119;-84
2022/06/10 05:59:36;;;;;;;11.55;4.32;;;15.50;99.90;;;;;;5040054;28;20044;-85
2022/06/10 06:02:04;;;;;;;11.32;4.35;;;15.60;99.90;;;;;;5025048;28;20056;-85
2022/06/10 06:04:30;;;;;;;11.18;4.35;;;15.60;99.90;;;;;;5031045;28;20037;-84
2022/06/10 06:06:56;;;;;;;10.07;3.78;;;15.50;99.90;;;;;;5023163;28;20060;-84
2022/06/10 06:09:22;;;;;;;11.48;3.83;;;15.50;99.90;;;;;;5031866;28;20045;-84
2022/06/10 06:11:50;;;;;;;7.07;3.55;;;15.40;99.90;;;;;;5028497;28;20033;-84
2022/06/10 06:14:17;;;;;;;10.93;3.65;;;15.40;99.90;;;;;;5035959;28;20059;-84
2022/06/10 06:16:45;;;;;;;14.40;3.85;;;15.40;99.90;;;;;;5037328;28;20493;-84
2022/06/10 06:19:11;;;;;;;8.75;3.63;;;15.60;99.90;;;;;;5012593;28;20102;-86
2022/06/10 06:21:36;;;;;;;8.88;2.97;;;15.90;99.90;;;;;;5012024;28;20124;-84
2022/06/10 06:24:02;;;;;;;9.35;3.38;;;15.90;99.90;;;;;;5016879;28;20067;-84
2022/06/10 06:26:28;;;;;;;11.38;3.95;;;15.90;99.90;;;;;;5024715;28;20082;-84
2022/06/10 06:28:54;;;;;;;16.08;3.83;;;15.90;99.90;;;;;;5048069;28;20123;-84
2022/06/10 06:31:20;;;;;;;14.20;3.83;;;16.00;99.90;;;;;;5035260;28;20124;-84
2022/06/10 06:33:45;;;;;;;15.77;3.70;;;16.20;99.90;;;;;;5034910;28;20041;-83
2022/06/10 06:36:19;;;;;;;9.57;3.88;;;16.20;99.90;;;;;;5032591;28;20050;-85
2022/06/10 06:38:49;;;;;;;11.55;3.70;;;16.20;99.90;;;;;;5036670;28;20052;-85
2022/06/10 06:41:15;;;;;;;12.48;3.65;;;16.10;99.90;;;;;;5045691;28;20052;-84
2022/06/10 06:43:42;;;;;;;12.52;4.45;;;16.10;99.90;;;;;;5031661;28;20068;-84
2022/06/10 06:46:15;;;;;;;15.40;4.07;;;16.10;99.90;;;;;;5034703;28;20391;-83
2022/06/10 06:48:42;;;;;;;8.60;4.05;;;16.00;99.90;;;;;;5019969;28;20088;-84
2022/06/10 06:51:08;;;;;;;13.88;4.22;;;16.00;99.90;;;;;;5017509;28;20383;-84
2022/06/10 06:53:34;;;;;;;11.68;4.45;;;16.10;99.90;;;;;;5011069;28;20049;-86
2022/06/10 06:56:04;;;;;;;12.50;3.92;;;16.30;99.90;;;;;;5047326;28;20108;-83
2022/06/10 06:58:31;;;;;;;12.45;4.38;;;16.30;99.90;;;;;;5019179;28;20045;-87
2022/06/10 07:00:56;;;;;;;13.80;4.55;;;16.40;99.90;;;;;;5016169;28;20037;-84
2022/06/10 07:03:23;;;;;;;13.10;4.43;;;16.40;99.90;;;;;;5024680;28;20084;-84
2022/06/10 07:05:49;;;;;;;11.57;4.45;;;16.50;99.90;;;;;;5016538;28;20077;-84
2022/06/10 07:08:17;;;;;;;10.60;4.22;;;16.50;99.90;;;;;;5034997;28;20044;-84
2022/06/10 07:10:43;;;;;;;17.73;4.95;;;16.50;99.90;;;;;;5031004;28;20442;-83
2022/06/10 07:13:09;;;;;;;15.45;5.13;;;16.70;99.90;;;;;;5045736;28;20049;-83
2022/06/10 07:15:37;;;;;;;13.85;5.75;;;16.80;99.90;;;;;;5063138;28;20064;-83
2022/06/10 07:18:04;;;;;;;16.25;5.38;;;16.90;99.90;;;;;;5035002;28;20041;-84
2022/06/10 07:20:32;;;;;;;12.98;5.43;;;16.90;99.90;;;;;;5048375;28;20045;-84
2022/06/10 07:22:59;;;;;;;14.60;5.85;;;17.00;99.90;;;;;;5044164;28;20045;-83
2022/06/10 07:25:27;;;;;;;16.38;6.68;;;17.10;99.90;;;;;;5032369;28;20049;-83
2022/06/10 07:27:53;;;;;;;14.57;6.95;;;17.10;99.90;;;;;;5034264;28;20124;-84
2022/06/10 07:30:20;;;;;;;16.02;6.68;;;17.20;99.90;;;;;;5050786;28;20072;-84
2022/06/10 07:32:46;;;;;;;11.93;6.03;;;17.10;99.90;;;;;;5024469;28;20037;-84
2022/06/10 07:35:13;;;;;;;11.90;6.10;;;16.90;99.90;;;;;;5012626;28;20483;-84
2022/06/10 07:37:40;;;;;;;13.43;5.82;;;16.80;99.90;;;;;;5025520;28;20071;-86
2022/06/10 07:40:07;;;;;;;13.57;6.20;;;16.80;99.90;;;;;;5019501;28;20084;-83
2022/06/10 07:42:34;;;;;;;12.60;5.80;;;16.90;99.90;;;;;;5034050;28;20044;-84
2022/06/10 07:45:02;;;;;;;11.98;5.88;;;17.00;99.90;;;;;;5022078;28;20049;-83
2022/06/10 07:47:28;;;;;;;13.70;5.75;;;17.10;99.90;;;;;;5049920;28;20041;-84
2022/06/10 07:49:54;;;;;;;13.88;5.30;;;17.20;99.90;;;;;;5029828;28;20052;-84
2022/06/10 07:52:20;;;;;;;10.77;5.25;;;17.40;99.90;;;;;;5013155;28;20038;-84
2022/06/10 07:54:45;;;;;;;12.68;5.40;;;17.60;99.90;;;;;;5039176;28;20502;-84
2022/06/10 07:57:12;;;;;;;9.75;4.50;;;17.90;99.90;;;;;;5004748;28;20044;-83
2022/06/10 07:59:40;;;;;;;14.85;5.88;;;18.10;99.90;;;;;;5033399;28;20040;-83
2022/06/10 08:02:06;;;;;;;13.73;5.72;;;18.20;99.90;;;;;;5006945;28;20049;-83
2022/06/10 08:04:34;;;;;;;13.23;5.50;;;18.30;99.90;;;;;;5003410;28;20115;-85
2022/06/10 08:07:00;;;;;;;14.60;4.68;;;18.20;99.90;;;;;;5010802;28;20413;-85
2022/06/10 08:09:28;;;;;;;12.80;4.90;;;18.30;99.90;;;;;;5022690;28;20049;-84
2022/06/10 08:11:58;;;;;;;15.52;5.47;;;18.40;99.90;;;;;;5041633;28;20448;-83
2022/06/10 08:14:28;;;;;;;11.57;5.03;;;18.40;99.90;;;;;;5025866;28;20053;-84
2022/06/10 08:16:59;;;;;;;12.07;5.10;;;18.30;99.90;;;;;;5046666;28;20080;-83
2022/06/10 08:19:28;;;;;;;13.07;5.47;;;18.20;99.90;;;;;;5043188;28;20040;-84
2022/06/10 08:24:40;;;;;;;;;;;18.10;99.90;;;;;;5015863;28;20040;-84
2022/06/10 08:27:09;;;;;;;11.73;5.30;;;18.00;99.90;;;;;;5031960;28;19924;-84
2022/06/10 08:29:38;;;;;;;16.88;6.28;;;18.00;99.90;;;;;;5021791;28;20053;-84
2022/06/10 08:32:09;;;;;;;13.05;5.38;;;18.00;99.90;;;;;;5030800;28;20037;-83
2022/06/10 08:34:41;;;;;;;15.30;6.85;;;18.10;99.90;;;;;;5016887;28;20045;-83
2022/06/10 08:37:08;;;;;;;13.15;5.88;;;18.10;99.90;;;;;;5032306;28;20067;-84
2022/06/10 08:39:37;;;;;;;12.52;5.25;;;18.30;99.90;;;;;;5032269;28;20083;-84
2022/06/10 08:42:37;;;;;;;15.05;6.03;;;18.60;99.90;;;;;;5047082;28;20037;-84
2022/06/10 08:45:17;;;;;;;13.55;5.07;;;18.60;99.90;;;;;;5031728;28;20045;-82
2022/06/10 08:48:08;;;;;;;10.68;4.95;;;18.80;99.90;;;;;;5049007;28;20045;-80
2022/06/10 08:51:16;;;;;;;13.68;5.28;;;18.80;99.90;;;;;;5045073;28;20033;-81
2022/06/10 08:53:56;;;;;;;13.05;5.55;;;18.80;99.90;;;;;;5017989;28;20068;-82
2022/06/10 08:56:35;;;;;;;16.05;5.35;;;19.00;99.90;;;;;;5012834;28;20064;-82
2022/06/10 08:59:33;;;;;;;14.63;4.75;;;19.30;99.90;;;;;;5029881;28;20091;-85
2022/06/10 09:02:13;;;;;;;13.35;4.28;;;19.60;99.90;;;;;;5031302;28;20513;-83
2022/06/10 09:04:54;;;;;;;13.32;4.70;;;19.70;99.90;;;;;;5036347;28;20090;-84
2022/06/10 09:07:28;;;;;;;10.27;3.75;;;19.90;99.90;;;;;;5030559;28;20063;-84
2022/06/10 09:09:58;;;;;;;14.98;4.60;;;20.00;99.90;;;;;;5019039;28;20083;-87
2022/06/10 09:12:36;;;;;;;9.30;3.40;;;20.10;99.90;;;;;;5047928;28;20061;-83
2022/06/10 09:15:03;;;;;;;10.77;3.80;;;20.00;99.90;;;;;;5015156;28;20052;-84
2022/06/10 09:17:36;;;;;;;13.05;4.63;;;19.90;99.90;;;;;;5022546;28;20043;-84
2022/06/10 09:20:29;;;;;;;13.27;4.85;;;19.80;99.90;;;;;;5021183;28;20048;-86
2022/06/10 09:23:01;;;;;;;13.02;3.80;;;19.30;99.90;;;;;;5035400;28;20119;-87
2022/06/10 09:25:46;;;;;;;12.68;4.30;;;19.10;99.90;;;;;;5050595;28;20717;-84
2022/06/10 09:28:12;;;;;;;10.80;3.58;;;19.10;99.90;;;;;;5047568;28;20494;-86
2022/06/10 09:30:54;;;;;;;8.55;3.80;;;19.10;99.90;;;;;;5034698;28;20036;-83
2022/06/10 09:33:32;;;;;;;11.05;4.30;;;19.30;99.90;;;;;;5049717;28;20393;-84
2022/06/10 09:36:00;;;;;;;9.32;4.07;;;19.20;99.90;;;;;;5027807;28;20124;-87
2022/06/10 09:38:37;;;;;;;10.02;3.72;;;19.30;99.90;;;;;;5016876;28;20041;-85
2022/06/10 09:41:09;;;;;;;9.95;4.25;;;19.30;99.90;;;;;;5036115;28;20072;-84
2022/06/10 09:43:46;;;;;;;14.63;5.18;;;19.30;99.90;;;;;;5033227;28;20451;-84
2022/06/10 09:46:44;;;;;;;11.38;5.00;;;19.20;99.90;;;;;;5045800;28;20368;-84
2022/06/10 09:49:39;;;;;;;12.85;4.53;;;18.90;99.90;;;;;;5025304;28;20095;-85
2022/06/10 09:52:34;;;;;;;8.48;3.80;;;18.60;99.90;;;;;;5029270;28;20098;-83
2022/06/10 09:55:13;;;;;;;12.95;4.22;;;18.60;99.90;;;;;;5049487;28;20120;-87
2022/06/10 09:58:12;;;;;;;13.07;4.80;;;18.70;99.90;;;;;;5055434;28;20055;-86
2022/06/10 10:00:40;;;;;;;13.57;4.43;;;18.80;99.90;;;;;;5049343;28;20091;-84
2022/06/10 10:03:28;;;;;;;11.05;4.47;;;19.00;99.90;;;;;;5031039;28;20512;-84
2022/06/10 10:06:16;;;;;;;13.30;4.30;;;19.30;99.90;;;;;;5038564;28;20052;-84
2022/06/10 10:09:05;;;;;;;9.20;3.88;;;19.70;99.90;;;;;;5049287;28;20044;-84
2022/06/10 10:12:05;;;;;;;9.38;3.70;;;20.10;99.90;;;;;;5051662;28;20081;-87
2022/06/10 10:14:46;;;;;;;16.38;4.63;;;20.20;99.90;;;;;;5039187;28;20094;-84
2022/06/10 10:17:30;;;;;;;9.93;3.38;;;20.70;99.90;;;;;;5038324;28;20055;-84
2022/06/10 10:20:34;;;;;;;11.35;3.78;;;21.20;99.90;;;;;;5025070;28;20053;-83
2022/06/10 10:23:05;;;;;;;12.82;3.80;;;21.20;99.90;;;;;;5033623;28;20110;-84
2022/06/10 10:25:31;;;;;;;10.82;3.28;;;21.00;99.90;;;;;;5024622;28;20135;-84
2022/06/10 10:27:57;;;;;;;11.77;3.42;;;21.20;99.90;;;;;;5038306;28;20127;-83
2022/06/10 10:30:54;;;;;;;10.20;3.75;;;21.50;99.90;;;;;;5037846;28;20044;-84
2022/06/10 10:33:20;;;;;;;6.72;3.30;;;22.00;99.90;;;;;;5009582;28;20441;-84
2022/06/10 10:35:50;;;;;;;9.57;3.80;;;21.90;99.90;;;;;;5028007;28;20045;-84
2022/06/10 10:38:28;;;;;;;9.73;3.47;;;21.80;99.90;;;;;;5051226;28;20075;-84
2022/06/10 10:40:55;;;;;;;10.48;3.58;;;21.70;99.90;;;;;;5054701;28;20076;-83
2022/06/10 10:43:28;;;;;;;10.77;3.63;;;21.50;99.90;;;;;;5017228;28;20376;-84
2022/06/10 10:46:02;;;;;;;10.80;3.95;;;21.20;99.90;;;;;;5040215;28;20517;-84
2022/06/10 10:48:33;;;;;;;9.38;3.17;;;21.20;99.90;;;;;;5053985;28;20052;-84
2022/06/10 10:51:21;;;;;;;7.05;3.15;;;21.30;99.90;;;;;;5037757;28;20397;-84
2022/06/10 10:53:56;;;;;;;10.23;2.90;;;21.30;99.90;;;;;;5052117;28;20754;-84
2022/06/10 10:56:38;;;;;;;12.05;2.67;;;21.60;99.90;;;;;;5026812;28;20052;-84
2022/06/10 10:59:05;;;;;;;7.65;2.80;;;22.00;99.90;;;;;;5037462;28;20398;-83
2022/06/10 11:01:43;;;;;;;11.27;3.63;;;22.60;99.90;;;;;;5044716;28;20057;-84
2022/06/10 11:04:27;;;;;;;9.25;2.90;;;22.90;99.90;;;;;;5019948;28;20052;-85
2022/06/10 11:07:01;;;;;;;9.57;3.08;;;22.80;99.90;;;;;;5054514;28;20048;-84
2022/06/10 11:09:28;;;;;;;6.85;3.00;;;22.50;99.90;;;;;;5036638;28;20052;-84
2022/06/10 11:12:03;;;;;;;9.45;3.38;;;22.30;99.90;;;;;;5053592;28;20486;-84
2022/06/10 11:14:35;;;;;;;8.65;3.20;;;22.10;99.90;;;;;;5033281;28;20554;-85
2022/06/10 11:17:13;;;;;;;8.27;3.25;;;21.70;99.90;;;;;;5035012;28;20047;-84
2022/06/10 11:19:48;;;;;;;11.65;3.30;;;21.30;99.90;;;;;;5033066;28;20049;-85
2022/06/10 11:22:22;;;;;;;10.57;3.20;;;21.20;99.90;;;;;;5028509;28;20478;-88
2022/06/10 11:24:52;;;;;;;8.90;2.88;;;21.30;99.90;;;;;;5032746;28;20068;-84
2022/06/10 11:27:27;;;;;;;9.27;3.45;;;21.30;99.90;;;;;;5033129;28;20048;-84
2022/06/10 11:30:03;;;;;;;10.07;2.73;;;21.40;99.90;;;;;;5032068;28;20489;-84
2022/06/10 11:32:36;;;;;;;8.95;2.80;;;22.20;99.90;;;;;;5031490;28;20040;-85
2022/06/10 11:35:20;;;;;;;9.43;2.58;;;22.80;99.90;;;;;;5038474;28;20044;-86
2022/06/10 11:38:16;;;;;;;9.52;3.13;;;23.30;99.90;;;;;;5030376;28;20051;-85
2022/06/10 11:40:51;;;;;;;9.30;2.40;;;23.40;97.10;;;;;;5021057;28;20062;-84
2022/06/10 11:43:25;;;;;;;9.47;2.63;;;23.50;95.80;;;;;;5051955;28;20056;-88
2022/06/10 11:45:56;;;;;;;8.00;2.65;;;23.80;93.80;;;;;;5029731;28;20053;-86
2022/06/10 11:48:22;;;;;;;9.05;3.00;;;24.50;92.10;;;;;;5032730;28;20053;-85
2022/06/10 11:51:06;;;;;;;8.00;2.88;;;24.80;90.40;;;;;;5030037;28;20041;-85
2022/06/10 11:53:49;;;;;;;9.43;3.17;;;24.90;81.90;;;;;;5047685;28;20044;-84
2022/06/10 12:02:10;;;;;;;8.90;3.00;;;23.10;91.80;;;;;;5050356;28;20144;-84
2022/06/10 12:04:42;;;;;;;11.15;3.40;;;22.40;94.50;;;;;;5049788;28;20041;-86
2022/06/10 12:07:18;;;;;;;9.43;3.17;;;22.10;96.60;;;;;;5047568;28;20375;-85
2022/06/10 12:09:51;;;;;;;11.48;4.78;;;22.30;98.00;;;;;;5024852;28;20080;-84
2022/06/10 12:12:24;;;;;;;11.50;3.92;;;22.70;95.30;;;;;;5052948;28;20133;-84
2022/06/10 12:14:54;;;;;;;11.57;4.07;;;22.90;95.60;;;;;;5036368;28;20063;-84
2022/06/10 12:17:29;;;;;;;10.15;3.20;;;23.10;95.70;;;;;;5029972;28;20029;-84
2022/06/10 12:19:59;;;;;;;9.70;3.22;;;23.20;92.30;;;;;;5046410;28;20045;-84
2022/06/10 12:22:26;;;;;;;9.85;3.25;;;23.30;92.20;;;;;;5035303;28;20040;-85
2022/06/10 12:24:55;;;;;;;6.88;2.70;;;23.20;92.10;;;;;;5034887;28;20133;-84
2022/06/10 12:27:41;;;;;;;10.65;2.88;;;23.30;91.00;;;;;;5049471;28;20081;-85
2022/06/10 12:30:15;;;;;;;10.83;2.77;;;23.10;88.30;;;;;;5034730;28;20074;-84
2022/06/10 12:32:52;;;;;;;12.43;3.28;;;23.10;91.10;;;;;;5051791;28;20036;-85
2022/06/10 12:35:32;;;;;;;7.43;2.40;;;23.70;90.80;;;;;;5030756;28;20055;-85
2022/06/10 12:38:19;;;;;;;9.65;2.30;;;24.40;86.20;;;;;;5047190;28;20055;-84
2022/06/10 12:41:01;;;;;;;8.38;2.83;;;24.60;80.20;;;;;;5032319;28;20613;-85
2022/06/10 12:43:33;;;;;;;6.50;2.38;;;24.50;78.60;;;;;;5029736;28;20379;-85
2022/06/10 12:46:05;;;;;;;9.88;2.38;;;24.80;82.40;;;;;;5043161;28;20521;-85
2022/06/10 12:48:42;;;;;;;5.90;2.13;;;24.80;78.30;;;;;;5035529;28;20052;-85
2022/06/10 12:51:11;;;;;;;14.40;3.67;;;24.80;79.50;;;;;;5036104;28;20075;-84
2022/06/10 12:54:12;;;;;;;6.47;2.25;;;24.80;79.30;;;;;;5035406;28;20078;-85
2022/06/10 12:56:38;;;;;;;8.38;2.30;;;24.50;74.10;;;;;;5048588;28;20045;-85
2022/06/10 12:59:07;;;;;;;7.28;2.20;;;24.20;82.30;;;;;;5019906;28;20425;-85
2022/06/10 13:01:32;;;;;;;8.13;2.53;;;24.20;77.70;;;;;;5035491;28;20507;-84
2022/06/10 13:04:15;;;;;;;7.80;2.40;;;24.20;78.80;;;;;;5033712;28;20044;-85
2022/06/10 13:06:41;;;;;;;6.95;2.25;;;24.00;77.20;;;;;;5050648;28;20406;-85
2022/06/10 13:09:10;;;;;;;8.00;2.22;;;23.90;77.60;;;;;;5035403;28;20102;-85
2022/06/10 13:11:46;;;;;;;8.38;2.33;;;23.80;74.40;;;;;;5034690;28;20090;-84
2022/06/10 13:14:21;;;;;;;9.52;2.65;;;23.60;77.00;;;;;;5035164;28;20061;-86
2022/06/10 13:16:59;;;;;;;7.18;2.58;;;23.70;77.70;;;;;;5036927;28;20053;-85
2022/06/10 13:19:36;;;;;;;7.50;2.15;;;23.40;78.30;;;;;;5029809;28;20515;-84
2022/06/10 13:22:17;;;;;;;8.38;2.60;;;23.30;80.00;;;;;;5058651;28;20052;-85
2022/06/10 13:24:53;;;;;;;7.07;2.15;;;23.30;79.00;;;;;;5031370;28;20453;-84
2022/06/10 13:27:27;;;;;;;7.43;2.33;;;23.10;79.90;;;;;;5042403;28;20051;-84